createdAt,value
2023-05-02T00:01:46.380Z,1007.13
2023-05-02T00:04:19.484Z,1007.12
2023-05-02T00:06:52.701Z,1007.10
2023-05-02T00:09:26.460Z,1007.10
2023-05-02T00:11:59.080Z,1007.10
2023-05-02T00:14:32.458Z,1007.10
2023-05-02T00:17:06.566Z,1007.10
2023-05-02T00:19:39.395Z,1007.11
2023-05-02T00:22:12.736Z,1007.10
2023-05-02T00:24:46.601Z,1007.11
2023-05-02T00:27:20.418Z,1007.12
2023-05-02T00:29:53.528Z,1007.13
2023-05-02T00:32:26.565Z,1007.12
2023-05-02T00:34:59.668Z,1007.12
2023-05-02T00:37:32.516Z,1007.13
2023-05-02T00:40:05.400Z,1007.12
2023-05-02T00:42:38.317Z,1007.11
2023-05-02T00:45:11.423Z,1007.12
2023-05-02T00:47:44.524Z,1007.13
2023-05-02T00:50:17.716Z,1007.15
2023-05-02T00:52:51.481Z,1007.16
2023-05-02T00:55:24.476Z,1007.18
2023-05-02T00:57:57.727Z,1007.19
2023-05-02T01:00:31.714Z,1007.18
2023-05-02T01:03:05.537Z,1007.20
2023-05-02T01:05:38.616Z,1007.18
2023-05-02T01:08:12.347Z,1007.19
2023-05-02T01:10:45.439Z,1007.20
2023-05-02T01:13:18.526Z,1007.21
2023-05-02T01:15:51.728Z,1007.23
2023-05-02T01:18:24.336Z,1007.25
2023-05-02T01:20:57.588Z,1007.27
2023-05-02T01:23:30.734Z,1007.28
2023-05-02T01:26:04.491Z,1007.33
2023-05-02T01:28:37.648Z,1007.34
2023-05-02T01:31:11.534Z,1007.37
2023-05-02T01:33:44.704Z,1007.40
2023-05-02T01:36:18.526Z,1007.44
2023-05-02T01:38:51.634Z,1007.47
2023-05-02T01:41:24.558Z,1007.50
2023-05-02T01:43:57.542Z,1007.52
2023-05-02T01:46:30.626Z,1007.55
2023-05-02T01:49:03.555Z,1007.57
2023-05-02T01:51:36.664Z,1007.59
2023-05-02T01:54:09.593Z,1007.61
2023-05-02T01:56:42.616Z,1007.63
2023-05-02T01:59:15.515Z,1007.66
2023-05-02T02:01:48.614Z,1007.70
2023-05-02T02:04:21.686Z,1007.74
2023-05-02T02:06:54.756Z,1007.76
2023-05-02T02:09:27.391Z,1007.80
2023-05-02T02:12:00.644Z,1007.84
2023-05-02T02:14:33.645Z,1007.88
2023-05-02T02:17:06.637Z,1007.91
2023-05-02T02:19:39.255Z,1007.94
2023-05-02T02:22:12.674Z,1007.97
2023-05-02T02:24:45.685Z,1008.00
2023-05-02T02:27:18.495Z,1008.03
2023-05-02T02:29:51.620Z,1008.06
2023-05-02T02:32:24.750Z,1008.08
2023-05-02T02:34:57.666Z,1008.09
2023-05-02T02:37:30.666Z,1008.10
2023-05-02T02:40:03.519Z,1008.11
2023-05-02T02:42:36.557Z,1008.10
2023-05-02T02:45:09.316Z,1008.11
2023-05-02T02:47:42.825Z,1008.11
2023-05-02T02:50:16.494Z,1008.12
2023-05-02T02:52:49.805Z,1008.12
2023-05-02T02:55:23.766Z,1008.14
2023-05-02T02:58:03.698Z,1008.16
2023-05-02T03:00:36.709Z,1008.18
2023-05-02T03:03:09.936Z,1008.20
2023-05-02T03:05:42.688Z,1008.22
2023-05-02T03:08:15.383Z,1008.26
2023-05-02T03:10:48.375Z,1008.29
2023-05-02T03:13:35.446Z,1008.32
2023-05-02T03:16:08.641Z,1008.34
2023-05-02T03:18:41.637Z,1008.37
2023-05-02T03:21:14.681Z,1008.40
2023-05-02T03:23:47.750Z,1008.41
2023-05-02T03:26:21.666Z,1008.43
2023-05-02T03:28:54.763Z,1008.46
2023-05-02T03:31:27.611Z,1008.44
2023-05-02T03:34:00.727Z,1008.45
2023-05-02T03:36:33.779Z,1008.49
2023-05-02T03:39:06.690Z,1008.53
2023-05-02T03:41:39.707Z,1008.57
2023-05-02T03:44:12.647Z,1008.59
2023-05-02T03:46:45.826Z,1008.63
2023-05-02T03:49:24.513Z,1008.67
2023-05-02T03:51:57.512Z,1008.71
2023-05-02T03:54:30.490Z,1008.75
2023-05-02T03:57:03.504Z,1008.79
2023-05-02T03:59:36.777Z,1008.82
2023-05-02T04:02:09.546Z,1008.84
2023-05-02T04:04:42.655Z,1008.89
2023-05-02T04:07:15.943Z,1008.92
2023-05-02T04:09:49.620Z,1008.95
2023-05-02T04:12:22.557Z,1008.98
2023-05-02T04:14:55.582Z,1009.03
2023-05-02T04:17:28.472Z,1009.06
2023-05-02T04:20:04.887Z,1009.10
2023-05-02T04:22:34.460Z,1009.14
2023-05-02T04:25:07.581Z,1009.17
2023-05-02T04:27:40.717Z,1009.20
2023-05-02T04:30:16.602Z,1009.24
2023-05-02T04:32:49.682Z,1009.26
2023-05-02T04:35:22.468Z,1009.29
2023-05-02T04:37:55.753Z,1009.33
2023-05-02T04:40:29.076Z,1009.36
2023-05-02T04:43:02.497Z,1009.38
2023-05-02T04:45:35.721Z,1009.42
2023-05-02T04:48:08.891Z,1009.45
2023-05-02T04:50:41.841Z,1009.50
2023-05-02T04:53:14.498Z,1009.54
2023-05-02T04:58:37.931Z,1009.61
2023-05-02T05:01:10.874Z,1009.63
2023-05-02T05:03:44.142Z,1009.66
2023-05-02T05:06:18.019Z,1009.71
2023-05-02T05:08:51.954Z,1009.75
2023-05-02T05:11:24.529Z,1009.79
2023-05-02T05:13:57.876Z,1009.84
2023-05-02T05:16:31.110Z,1009.90
2023-05-02T05:19:04.790Z,1009.93
2023-05-02T05:21:37.898Z,1009.97
2023-05-02T05:24:10.929Z,1010.02
2023-05-02T05:26:43.770Z,1010.04
2023-05-02T05:29:16.770Z,1010.09
2023-05-02T05:31:49.716Z,1010.11
2023-05-02T05:34:22.602Z,1010.14
2023-05-02T05:36:55.952Z,1010.18
2023-05-02T05:39:28.684Z,1010.22
2023-05-02T05:42:01.917Z,1010.27
2023-05-02T05:44:34.946Z,1010.30
2023-05-02T05:47:08.020Z,1010.35
2023-05-02T05:49:40.748Z,1010.39
2023-05-02T05:52:13.952Z,1010.43
2023-05-02T05:54:46.982Z,1010.44
2023-05-02T05:57:19.959Z,1010.47
2023-05-02T05:59:52.955Z,1010.50
2023-05-02T06:02:26.233Z,1010.54
2023-05-02T06:05:00.156Z,1010.55
2023-05-02T06:07:33.914Z,1010.58
2023-05-02T06:10:06.893Z,1010.60
2023-05-02T06:12:53.868Z,1010.62
2023-05-02T06:15:27.087Z,1010.64
2023-05-02T06:18:01.002Z,1010.66
2023-05-02T06:20:33.815Z,1010.69
2023-05-02T06:23:07.009Z,1010.72
2023-05-02T06:25:39.954Z,1010.74
2023-05-02T06:28:12.980Z,1010.75
2023-05-02T06:30:46.400Z,1010.76
2023-05-02T06:33:19.924Z,1010.79
2023-05-02T06:35:53.019Z,1010.81
2023-05-02T06:38:29.818Z,1010.85
2023-05-02T06:41:03.224Z,1010.88
2023-05-02T06:43:37.011Z,1010.92
2023-05-02T06:46:10.062Z,1010.94
2023-05-02T06:48:42.885Z,1010.96
2023-05-02T06:51:15.915Z,1011.00
2023-05-02T06:53:49.295Z,1011.04
2023-05-02T06:56:23.010Z,1011.05
2023-05-02T06:58:55.871Z,1011.08
2023-05-02T07:01:28.847Z,1011.10
2023-05-02T07:04:02.264Z,1011.11
2023-05-02T07:06:35.966Z,1011.14
2023-05-02T07:09:08.821Z,1011.15
2023-05-02T07:11:41.974Z,1011.16
2023-05-02T07:14:15.112Z,1011.19
2023-05-02T07:16:48.104Z,1011.20
2023-05-02T07:19:21.077Z,1011.24
2023-05-02T07:21:53.990Z,1011.26
2023-05-02T07:24:27.006Z,1011.28
2023-05-02T07:27:00.033Z,1011.30
2023-05-02T07:29:33.100Z,1011.32
2023-05-02T07:32:06.154Z,1011.34
2023-05-02T07:34:38.883Z,1011.37
2023-05-02T07:37:12.103Z,1011.38
2023-05-02T07:39:45.252Z,1011.40
2023-05-02T07:42:19.091Z,1011.42
2023-05-02T07:44:52.111Z,1011.43
2023-05-02T07:47:25.434Z,1011.42
2023-05-02T07:49:59.200Z,1011.45
2023-05-02T07:52:32.151Z,1011.46
2023-05-02T07:55:04.913Z,1011.48
2023-05-02T07:57:52.107Z,1011.49
2023-05-02T08:00:25.294Z,1011.52
2023-05-02T08:02:59.083Z,1011.52
2023-05-02T08:05:32.100Z,1011.54
2023-05-02T08:08:05.105Z,1011.55
2023-05-02T08:10:37.775Z,1011.56
2023-05-02T08:13:11.019Z,1011.59
2023-05-02T08:15:44.213Z,1011.61
2023-05-02T08:18:17.301Z,1011.62
2023-05-02T08:20:51.148Z,1011.67
2023-05-02T08:23:24.103Z,1011.71
2023-05-02T08:25:57.113Z,1011.74
2023-05-02T08:28:30.160Z,1011.75
2023-05-02T08:31:03.071Z,1011.77
2023-05-02T08:33:36.350Z,1011.80
2023-05-02T08:36:10.360Z,1011.82
2023-05-02T08:38:44.130Z,1011.83
2023-05-02T08:41:16.830Z,1011.85
2023-05-02T08:43:50.077Z,1011.86
2023-05-02T08:46:23.050Z,1011.86
2023-05-02T08:48:56.141Z,1011.88
2023-05-02T08:51:29.585Z,1011.91
2023-05-02T08:54:02.261Z,1011.93
2023-05-02T08:56:35.344Z,1011.96
2023-05-02T08:59:08.998Z,1011.98
2023-05-02T09:01:42.349Z,1011.98
2023-05-02T09:04:15.967Z,1012.01
2023-05-02T09:06:49.225Z,1012.04
2023-05-02T09:09:22.412Z,1012.07
2023-05-02T09:11:56.094Z,1012.09
2023-05-02T09:14:29.252Z,1012.11
2023-05-02T09:17:02.272Z,1012.13
2023-05-02T09:19:35.289Z,1012.17
2023-05-02T09:22:08.226Z,1012.20
2023-05-02T09:24:41.294Z,1012.23
2023-05-02T09:27:14.215Z,1012.26
2023-05-02T09:29:47.432Z,1012.29
2023-05-02T09:32:21.524Z,1012.32
2023-05-02T09:34:55.215Z,1012.36
2023-05-02T09:37:28.238Z,1012.39
2023-05-02T09:40:01.215Z,1012.42
2023-05-02T09:42:34.447Z,1012.44
2023-05-02T09:45:08.271Z,1012.48
2023-05-02T09:47:41.435Z,1012.50
2023-05-02T09:50:15.402Z,1012.53
2023-05-02T09:52:48.213Z,1012.56
2023-05-02T09:55:21.260Z,1012.57
2023-05-02T09:57:54.177Z,1012.59
2023-05-02T10:00:27.289Z,1012.60
2023-05-02T10:03:00.413Z,1012.60
2023-05-02T10:05:33.346Z,1012.61
2023-05-02T10:08:06.236Z,1012.62
2023-05-02T10:10:39.276Z,1012.62
2023-05-02T10:13:12.149Z,1012.61
2023-05-02T10:15:45.299Z,1012.61
2023-05-02T10:18:18.466Z,1012.61
2023-05-02T10:20:52.462Z,1012.64
2023-05-02T10:23:25.986Z,1012.64
2023-05-02T10:26:00.145Z,1012.66
2023-05-02T10:28:32.113Z,1012.64
2023-05-02T10:31:05.352Z,1012.64
2023-05-02T10:33:38.585Z,1012.65
2023-05-02T10:36:12.476Z,1012.64
2023-05-02T10:38:46.306Z,1012.64
2023-05-02T10:41:20.244Z,1012.64
2023-05-02T10:43:53.282Z,1012.64
2023-05-02T10:46:26.503Z,1012.63
2023-05-02T10:49:03.048Z,1012.65
2023-05-02T10:51:36.173Z,1012.65
2023-05-02T10:54:09.369Z,1012.64
2023-05-02T10:56:42.191Z,1012.62
2023-05-02T10:59:15.570Z,1012.60
2023-05-02T11:01:49.540Z,1012.60
2023-05-02T11:04:23.273Z,1012.61
2023-05-02T11:06:56.395Z,1012.59
2023-05-02T11:09:29.488Z,1012.59
2023-05-02T11:12:03.400Z,1012.57
2023-05-02T11:14:36.039Z,1012.55
2023-05-02T11:17:09.575Z,1012.54
2023-05-02T11:19:43.516Z,1012.54
2023-05-02T11:22:17.462Z,1012.54
2023-05-02T11:24:53.414Z,1012.53
2023-05-02T11:27:26.245Z,1012.53
2023-05-02T11:29:59.387Z,1012.52
2023-05-02T11:32:32.274Z,1012.50
2023-05-02T11:35:05.217Z,1012.50
2023-05-02T11:37:39.484Z,1012.49
2023-05-02T11:40:12.539Z,1012.48
2023-05-02T11:42:45.371Z,1012.48
2023-05-02T11:45:18.472Z,1012.48
2023-05-02T11:47:51.496Z,1012.48
2023-05-02T11:50:27.361Z,1012.47
2023-05-02T11:53:00.473Z,1012.46
2023-05-02T11:55:33.469Z,1012.46
2023-05-02T11:58:10.330Z,1012.43
2023-05-02T12:00:43.462Z,1012.42
2023-05-02T12:03:16.337Z,1012.42
2023-05-02T12:05:49.491Z,1012.42
2023-05-02T12:08:22.373Z,1012.41
2023-05-02T12:10:55.306Z,1012.41
2023-05-02T12:13:28.129Z,1012.41
2023-05-02T12:16:01.538Z,1012.39
2023-05-02T12:18:34.204Z,1012.38
2023-05-02T12:21:07.527Z,1012.37
2023-05-02T12:23:40.320Z,1012.38
2023-05-02T12:26:13.521Z,1012.38
2023-05-02T12:28:46.550Z,1012.41
2023-05-02T12:31:19.369Z,1012.41
2023-05-02T12:33:52.646Z,1012.42
2023-05-02T12:36:39.520Z,1012.41
2023-05-02T12:39:12.560Z,1012.42
2023-05-02T12:41:45.624Z,1012.43
2023-05-02T12:44:19.495Z,1012.41
2023-05-02T12:46:52.556Z,1012.41
2023-05-02T12:49:25.734Z,1012.40
2023-05-02T12:51:59.584Z,1012.40
2023-05-02T12:54:32.543Z,1012.37
2023-05-02T12:57:11.616Z,1012.37
2023-05-02T12:59:45.557Z,1012.38
2023-05-02T13:02:18.609Z,1012.38
2023-05-02T13:04:51.777Z,1012.37
2023-05-02T13:07:25.366Z,1012.37
2023-05-02T13:09:59.287Z,1012.34
2023-05-02T13:12:32.466Z,1012.34
2023-05-02T13:15:05.356Z,1012.32
2023-05-02T13:17:38.818Z,1012.34
2023-05-02T13:20:11.639Z,1012.34
2023-05-02T13:22:44.772Z,1012.33
2023-05-02T13:25:18.797Z,1012.33
2023-05-02T13:27:51.608Z,1012.34
2023-05-02T13:30:24.608Z,1012.35
2023-05-02T13:32:57.547Z,1012.34
2023-05-02T13:35:30.891Z,1012.34
2023-05-02T13:38:03.523Z,1012.34
2023-05-02T13:40:36.603Z,1012.37
2023-05-02T13:43:09.606Z,1012.38
2023-05-02T13:45:42.500Z,1012.42
2023-05-02T13:48:15.453Z,1012.44
2023-05-02T13:50:48.755Z,1012.47
2023-05-02T13:53:22.619Z,1012.47
2023-05-02T13:55:55.635Z,1012.47
2023-05-02T13:58:28.601Z,1012.48
2023-05-02T14:01:01.405Z,1012.48
2023-05-02T14:03:34.567Z,1012.48
2023-05-02T14:06:07.328Z,1012.49
2023-05-02T14:08:40.489Z,1012.51
2023-05-02T14:11:16.304Z,1012.53
2023-05-02T14:13:49.671Z,1012.54
2023-05-02T14:16:22.360Z,1012.54
2023-05-02T14:18:56.310Z,1012.53
2023-05-02T14:21:29.514Z,1012.55
2023-05-02T14:24:02.580Z,1012.54
2023-05-02T14:26:35.553Z,1012.52
2023-05-02T14:29:08.634Z,1012.53
2023-05-02T14:31:42.660Z,1012.54
2023-05-02T14:34:15.537Z,1012.53
2023-05-02T14:36:48.448Z,1012.53
2023-05-02T14:39:21.468Z,1012.54
2023-05-02T14:41:54.396Z,1012.53
2023-05-02T14:44:27.692Z,1012.52
2023-05-02T14:47:01.015Z,1012.52
2023-05-02T14:49:34.644Z,1012.53
2023-05-02T14:52:11.324Z,1012.53
2023-05-02T14:54:44.370Z,1012.51
2023-05-02T14:57:17.588Z,1012.53
2023-05-02T14:59:50.488Z,1012.54
2023-05-02T15:02:23.972Z,1012.54
2023-05-02T15:04:59.299Z,1012.55
2023-05-02T15:07:32.602Z,1012.56
2023-05-02T15:10:05.734Z,1012.57
2023-05-02T15:12:42.333Z,1012.58
2023-05-02T15:15:15.502Z,1012.59
2023-05-02T15:17:49.724Z,1012.58
2023-05-02T15:20:22.376Z,1012.57
2023-05-02T15:22:55.683Z,1012.57
2023-05-02T15:25:28.832Z,1012.56
2023-05-02T15:28:02.694Z,1012.56
2023-05-02T15:30:35.946Z,1012.57
2023-05-02T15:33:09.790Z,1012.58
2023-05-02T15:35:42.742Z,1012.59
2023-05-02T15:38:15.776Z,1012.59
2023-05-02T15:40:48.890Z,1012.58
2023-05-02T15:43:22.739Z,1012.58
2023-05-02T15:45:55.750Z,1012.58
2023-05-02T15:48:28.783Z,1012.58
2023-05-02T15:51:01.794Z,1012.60
2023-05-02T15:53:35.631Z,1012.61
2023-05-02T15:56:08.461Z,1012.62
2023-05-02T15:58:41.927Z,1012.63
2023-05-02T16:01:15.818Z,1012.64
2023-05-02T16:03:48.687Z,1012.66
2023-05-02T16:06:21.599Z,1012.67
2023-05-02T16:08:54.784Z,1012.72
2023-05-02T16:11:27.461Z,1012.74
2023-05-02T16:14:00.477Z,1012.76
2023-05-02T16:16:33.863Z,1012.78
2023-05-02T16:19:06.637Z,1012.78
2023-05-02T16:21:39.510Z,1012.79
2023-05-02T16:24:12.610Z,1012.81
2023-05-02T16:26:45.877Z,1012.80
2023-05-02T16:29:18.663Z,1012.79
2023-05-02T16:31:52.104Z,1012.81
2023-05-02T16:34:24.589Z,1012.82
2023-05-02T16:36:57.493Z,1012.83
2023-05-02T16:39:30.842Z,1012.82
2023-05-02T16:42:03.518Z,1012.82
2023-05-02T16:44:36.529Z,1012.83
2023-05-02T16:47:09.878Z,1012.83
2023-05-02T16:49:42.838Z,1012.86
2023-05-02T16:52:15.888Z,1012.87
2023-05-02T16:54:48.790Z,1012.88
2023-05-02T16:57:21.898Z,1012.88
2023-05-02T16:59:54.909Z,1012.89
2023-05-02T17:02:27.938Z,1012.91
2023-05-02T17:05:00.706Z,1012.94
2023-05-02T17:07:34.022Z,1012.94
2023-05-02T17:10:07.665Z,1012.95
2023-05-02T17:12:40.728Z,1012.97
2023-05-02T17:15:13.995Z,1012.97
2023-05-02T17:17:49.531Z,1012.99
2023-05-02T17:20:22.765Z,1013.00
2023-05-02T17:22:55.803Z,1013.01
2023-05-02T17:25:28.861Z,1013.03
2023-05-02T17:28:01.582Z,1013.05
2023-05-02T17:30:35.033Z,1013.09
2023-05-02T17:33:07.955Z,1013.12
2023-05-02T17:35:40.812Z,1013.16
2023-05-02T17:38:13.969Z,1013.18
2023-05-02T17:40:46.754Z,1013.19
2023-05-02T17:43:19.748Z,1013.22
2023-05-02T17:45:52.641Z,1013.25
2023-05-02T17:48:25.754Z,1013.29
2023-05-02T17:50:58.585Z,1013.32
2023-05-02T17:53:31.735Z,1013.34
2023-05-02T17:56:04.729Z,1013.36
2023-05-02T17:58:37.776Z,1013.38
2023-05-02T18:01:10.920Z,1013.41
2023-05-02T18:03:44.048Z,1013.44
2023-05-02T18:06:17.092Z,1013.46
2023-05-02T18:08:49.624Z,1013.48
2023-05-02T18:11:22.741Z,1013.50
2023-05-02T18:13:58.902Z,1013.53
2023-05-02T18:16:31.747Z,1013.54
2023-05-02T18:19:04.657Z,1013.56
2023-05-02T18:21:37.718Z,1013.59
2023-05-02T18:24:17.080Z,1013.60
2023-05-02T18:26:50.107Z,1013.61
2023-05-02T18:29:22.973Z,1013.63
2023-05-02T18:31:55.754Z,1013.64
2023-05-02T18:34:28.834Z,1013.67
2023-05-02T18:37:01.948Z,1013.68
2023-05-02T18:39:35.038Z,1013.70
2023-05-02T18:42:21.833Z,1013.72
2023-05-02T18:44:54.930Z,1013.74
2023-05-02T18:47:27.984Z,1013.76
2023-05-02T18:50:00.682Z,1013.79
2023-05-02T18:52:33.797Z,1013.83
2023-05-02T18:55:06.917Z,1013.86
2023-05-02T18:57:40.176Z,1013.90
2023-05-02T19:00:13.838Z,1013.94
2023-05-02T19:02:47.056Z,1014.00
2023-05-02T19:05:19.810Z,1014.05
2023-05-02T19:07:52.913Z,1014.11
2023-05-02T19:10:25.739Z,1014.16
2023-05-02T19:12:58.755Z,1014.22
2023-05-02T19:15:32.081Z,1014.25
2023-05-02T19:18:04.851Z,1014.29
2023-05-02T19:20:38.088Z,1014.34
2023-05-02T19:23:19.724Z,1014.39
2023-05-02T19:25:44.198Z,1014.44
2023-05-02T19:28:17.919Z,1014.47
2023-05-02T19:30:50.888Z,1014.50
2023-05-02T19:33:23.928Z,1014.54
2023-05-02T19:35:57.042Z,1014.57
2023-05-02T19:38:30.013Z,1014.60
2023-05-02T19:41:02.797Z,1014.64
2023-05-02T19:43:35.899Z,1014.67
2023-05-02T19:46:09.051Z,1014.69
2023-05-02T19:48:41.794Z,1014.73
2023-05-02T19:51:15.329Z,1014.76
2023-05-02T19:53:49.003Z,1014.79
2023-05-02T19:56:21.890Z,1014.83
2023-05-02T19:58:54.891Z,1014.87
2023-05-02T20:01:27.987Z,1014.91
2023-05-02T20:04:01.135Z,1014.93
2023-05-02T20:06:33.964Z,1014.95
2023-05-02T20:09:06.811Z,1014.96
2023-05-02T20:11:39.837Z,1014.98
2023-05-02T20:14:12.790Z,1014.99
2023-05-02T20:16:45.913Z,1015.04
2023-05-02T20:19:20.087Z,1015.08
2023-05-02T20:21:52.262Z,1015.12
2023-05-02T20:24:25.810Z,1015.16
2023-05-02T20:26:59.117Z,1015.17
2023-05-02T20:29:32.153Z,1015.20
2023-05-02T20:32:04.878Z,1015.22
2023-05-02T20:34:37.962Z,1015.27
2023-05-02T20:37:10.947Z,1015.29
2023-05-02T20:39:44.024Z,1015.33
2023-05-02T20:42:17.253Z,1015.36
2023-05-02T20:44:52.949Z,1015.38
2023-05-02T20:47:26.103Z,1015.41
2023-05-02T20:49:58.905Z,1015.41
2023-05-02T20:52:32.205Z,1015.43
2023-05-02T20:55:05.129Z,1015.43
2023-05-02T20:57:38.265Z,1015.43
2023-05-02T21:00:11.292Z,1015.44
2023-05-02T21:02:44.307Z,1015.47
2023-05-02T21:05:17.276Z,1015.48
2023-05-02T21:07:50.204Z,1015.50
2023-05-02T21:10:23.158Z,1015.52
2023-05-02T21:12:56.372Z,1015.54
2023-05-02T21:15:30.268Z,1015.57
2023-05-02T21:18:03.227Z,1015.58
2023-05-02T21:20:36.254Z,1015.60
2023-05-02T21:23:09.236Z,1015.61
2023-05-02T21:25:42.280Z,1015.63
2023-05-02T21:31:05.312Z,1015.65
2023-05-02T21:33:38.257Z,1015.66
2023-05-02T21:36:11.381Z,1015.67
2023-05-02T21:38:44.468Z,1015.68
2023-05-02T21:41:18.395Z,1015.71
2023-05-02T21:43:52.227Z,1015.74
2023-05-02T21:46:25.319Z,1015.76
2023-05-02T21:48:58.522Z,1015.76
2023-05-02T21:51:32.322Z,1015.78
2023-05-02T21:54:05.212Z,1015.77
2023-05-02T21:56:38.405Z,1015.76
2023-05-02T21:59:12.490Z,1015.76
2023-05-02T22:01:46.431Z,1015.76
2023-05-02T22:04:20.122Z,1015.77
2023-05-02T22:06:53.450Z,1015.77
2023-05-02T22:09:26.307Z,1015.79
2023-05-02T22:11:59.303Z,1015.78
2023-05-02T22:14:41.504Z,1015.79
2023-05-02T22:17:05.390Z,1015.79
2023-05-02T22:19:38.155Z,1015.79
2023-05-02T22:22:11.342Z,1015.81
2023-05-02T22:24:44.351Z,1015.83
2023-05-02T22:27:17.356Z,1015.84
2023-05-02T22:29:50.489Z,1015.83
2023-05-02T22:32:24.370Z,1015.85
2023-05-02T22:34:57.307Z,1015.85
2023-05-02T22:37:30.364Z,1015.84
2023-05-02T22:40:03.614Z,1015.85
2023-05-02T22:42:36.305Z,1015.88
2023-05-02T22:45:09.271Z,1015.89
2023-05-02T22:47:42.323Z,1015.90
2023-05-02T22:50:15.415Z,1015.90
2023-05-02T22:52:48.380Z,1015.93
2023-05-02T22:55:21.436Z,1015.96
2023-05-02T22:57:54.322Z,1016.00
2023-05-02T23:00:27.455Z,1016.00
2023-05-02T23:03:00.649Z,1016.01
2023-05-02T23:05:34.399Z,1016.02
2023-05-02T23:08:07.374Z,1016.04
2023-05-02T23:10:40.169Z,1016.05
2023-05-02T23:13:13.449Z,1016.04
2023-05-02T23:15:46.447Z,1016.04
2023-05-02T23:18:19.450Z,1016.05
2023-05-02T23:20:52.451Z,1016.06
2023-05-02T23:23:25.395Z,1016.07
2023-05-02T23:25:58.334Z,1016.07
2023-05-02T23:28:31.411Z,1016.06
2023-05-02T23:31:04.409Z,1016.07
2023-05-02T23:33:37.510Z,1016.08
2023-05-02T23:36:10.486Z,1016.10
2023-05-02T23:38:43.366Z,1016.13
2023-05-02T23:41:16.441Z,1016.13
2023-05-02T23:43:49.067Z,1016.12
2023-05-02T23:46:22.427Z,1016.13
2023-05-02T23:48:55.448Z,1016.13
2023-05-02T23:51:28.541Z,1016.14
2023-05-02T23:54:01.261Z,1016.16
2023-05-02T23:56:34.479Z,1016.18
2023-05-02T23:59:07.110Z,1016.19
